Time;durP1;ratioP1;P1;durP2;ratioP2;P2;SDS_P1;SDS_P2;PMS_P1;PMS_P2;Temp;Humidity;BMP_temperature;BMP_pressure;BME280_temperature;BME280_humidity;BME280_pressure;Samples;Min_cycle;Max_cycle;Signal;HPM_P1;HPM_P2
2022/01/11 00:00:11;;;;;;;;;;;;;;;;;;1027860;28;1106;-37
2022/01/11 00:00:43;;;;;;;;;;;;;;;;;;1027984;28;961;-35
2022/01/11 00:01:17;;;;;;;;;;;;;;;;;;1027993;28;870;-37
2022/01/11 00:01:47;;;;;;;;;;;;;;;;;;1028163;28;946;-33
2022/01/11 00:02:18;;;;;;;;;;;;;;;;;;1027938;28;926;-35
2022/01/11 00:02:50;;;;;;;;;;;;;;;;;;1028047;28;918;-33
2022/01/11 00:03:20;;;;;;;;;;;;;;;;;;1028155;28;820;-36
2022/01/11 00:03:50;;;;;;;;;;;;;;;;;;1028039;28;910;-35
2022/01/11 00:04:28;;;;;;;;;;;;;;;;;;1027979;28;993;-37
2022/01/11 00:04:58;;;;;;;;;;;;;;;;;;1027909;28;970;-37
2022/01/11 00:05:34;;;;;;;;;;;;;;;;;;1028204;28;890;-35
2022/01/11 00:06:23;;;;;;;;;;;;;;;;;;1028043;28;768;-36
2022/01/11 00:06:56;;;;;;;;;;;;;;;;;;1027978;28;938;-36
2022/01/11 00:07:29;;;;;;;;;;;;;;;;;;1028119;28;843;-36
2022/01/11 00:07:59;;;;;;;;;;;;;;;;;;1027914;28;894;-37
2022/01/11 00:08:32;;;;;;;;;;;;;;;;;;1028104;28;1976;-36
2022/01/11 00:09:08;;;;;;;;;;;;;;;;;;1027788;28;1005;-36
2022/01/11 00:09:41;;;;;;;;;;;;;;;;;;1028045;28;895;-34
2022/01/11 00:10:20;;;;;;;;;;;;;;;;;;1027954;28;1168;-34
2022/01/11 00:10:54;;;;;;;;;;;;;;;;;;1028096;28;984;-37
2022/01/11 00:11:24;;;;;;;;;;;;;;;;;;1028165;28;788;-35
2022/01/11 00:11:54;;;;;;;;;;;;;;;;;;1027840;28;997;-34
2022/01/11 00:12:24;;;;;;;;;;;;;;;;;;1028143;28;969;-37
2022/01/11 00:12:55;;;;;;;;;;;;;;;;;;1027895;28;827;-37
2022/01/11 00:13:26;;;;;;;;;;;;;;;;;;1028068;28;846;-34
2022/01/11 00:13:56;;;;;;;;;;;;;;;;;;1028005;28;1096;-37
2022/01/11 00:14:27;;;;;;;;;;;;;;;;;;1028005;28;882;-37
2022/01/11 00:14:57;;;;;;;;;;;;;;;;;;1027958;28;862;-37
2022/01/11 00:15:28;;;;;;;;;;;;;;;;;;1028086;28;919;-37
2022/01/11 00:15:58;;;;;;;;;;;;;;;;;;1027890;28;835;-36
2022/01/11 00:16:29;;;;;;;;;;;;;;;;;;1028056;28;898;-36
2022/01/11 00:17:00;;;;;;;;;;;;;;;;;;1027925;28;855;-38
2022/01/11 00:17:30;;;;;;;;;;;;;;;;;;1028015;28;863;-37
2022/01/11 00:18:00;;;;;;;;;;;;;;;;;;1027948;28;828;-37
2022/01/11 00:18:31;;;;;;;;;;;;;;;;;;1028022;28;855;-36
2022/01/11 00:19:05;;;;;;;;;;;;;;;;;;1027948;28;883;-33
2022/01/11 00:19:36;;;;;;;;;;;;;;;;;;1027896;28;946;-33
2022/01/11 00:20:06;;;;;;;;;;;;;;;;;;1028013;28;985;-37
2022/01/11 00:20:38;;;;;;;;;;;;;;;;;;1027909;28;787;-35
2022/01/11 00:21:08;;;;;;;;;;;;;;;;;;1027915;28;803;-37
2022/01/11 00:21:45;;;;;;;;;;;;;;;;;;1027883;28;953;-35
2022/01/11 00:22:19;;;;;;;;;;;;;;;;;;1027837;28;970;-34
2022/01/11 00:24:51;;;;;;;;;;;;;;;;;;1027806;28;1103;-37
2022/01/11 00:25:21;;;;;;;;;;;;;;;;;;1027972;28;799;-37
2022/01/11 00:25:53;;;;;;;;;;;;;;;;;;1027816;28;1389;-36
2022/01/11 00:26:23;;;;;;;;;;;;;;;;;;1027997;28;946;-36
2022/01/11 00:26:53;;;;;;;;;;;;;;;;;;1028017;28;867;-36
2022/01/11 00:27:24;;;;;;;;;;;;;;;;;;1028011;28;803;-36
2022/01/11 00:27:55;;;;;;;;;;;;;;;;;;1028275;28;1423;-36
2022/01/11 00:28:25;;;;;;;;;;;;;;;;;;1029855;28;1971;-36
2022/01/11 00:29:17;;;;;;;;;;;;;;;;;;1027587;28;1460;-36
2022/01/11 00:29:51;;;;;;;;;;;;;;;;;;1027675;28;997;-36
2022/01/11 00:30:33;;;;;;;;;;;;;;;;;;1031464;28;1306;-36
2022/01/11 00:31:06;;;;;;;;;;;;;;;;;;1027641;28;942;-36
2022/01/11 00:31:37;;;;;;;;;;;;;;;;;;1027443;28;1464;-29
2022/01/11 00:32:12;;;;;;;;;;;;;;;;;;1022175;29;1273;-37
2022/01/11 00:32:49;;;;;;;;;;;;;;;;;;1020821;29;1353;-36
2022/01/11 00:33:30;;;;;;;;;;;;;;;;;;1027505;28;1252;-36
2022/01/11 00:34:02;;;;;;;;;;;;;;;;;;1027531;28;851;-36
2022/01/11 00:34:46;;;;;;;;;;;;;;;;;;1023458;29;954;-37
2022/01/11 00:35:27;;;;;;;;;;;;;;;;;;1023481;29;1249;-36
2022/01/11 00:35:59;;;;;;;;;;;;;;;;;;1023502;29;970;-35
2022/01/11 00:36:40;;;;;;;;;;;;;;;;;;1027295;28;977;-37
2022/01/11 00:37:11;;;;;;;;;;;;;;;;;;1027853;28;939;-37
2022/01/11 00:37:43;;;;;;;;;;;;;;;;;;1027966;28;862;-36
2022/01/11 00:38:16;;;;;;;;;;;;;;;;;;1031389;28;1393;-36
2022/01/11 00:38:47;;;;;;;;;;;;;;;;;;1027639;28;1394;-35
2022/01/11 00:39:17;;;;;;;;;;;;;;;;;;1027581;28;962;-37
2022/01/11 00:39:50;;;;;;;;;;;;;;;;;;1027008;28;1798;-37
2022/01/11 00:40:21;;;;;;;;;;;;;;;;;;1023587;28;1184;-35
2022/01/11 00:40:56;;;;;;;;;;;;;;;;;;1031605;28;879;-35
2022/01/11 00:41:26;;;;;;;;;;;;;;;;;;1031688;28;1501;-35
2022/01/11 00:41:56;;;;;;;;;;;;;;;;;;1030976;28;909;-34
2022/01/11 00:42:27;;;;;;;;;;;;;;;;;;1026936;28;872;-37
2022/01/11 00:43:00;;;;;;;;;;;;;;;;;;1027426;28;1204;-32
2022/01/11 00:43:31;;;;;;;;;;;;;;;;;;1031588;28;990;-37
2022/01/11 00:44:01;;;;;;;;;;;;;;;;;;1031547;28;1088;-33
2022/01/11 00:44:32;;;;;;;;;;;;;;;;;;1031160;28;839;-38
2022/01/11 00:45:04;;;;;;;;;;;;;;;;;;1027815;28;819;-36
2022/01/11 00:45:34;;;;;;;;;;;;;;;;;;1023515;29;954;-38
2022/01/11 00:46:05;;;;;;;;;;;;;;;;;;1023421;29;931;-36
2022/01/11 00:46:36;;;;;;;;;;;;;;;;;;1023378;29;875;-36
2022/01/11 00:47:06;;;;;;;;;;;;;;;;;;1023700;28;863;-34
2022/01/11 00:47:37;;;;;;;;;;;;;;;;;;1027483;28;969;-37
2022/01/11 00:48:08;;;;;;;;;;;;;;;;;;1031509;28;1297;-35
2022/01/11 00:48:39;;;;;;;;;;;;;;;;;;1031393;28;2033;-38
2022/01/11 00:49:10;;;;;;;;;;;;;;;;;;1031423;28;1261;-37
2022/01/11 00:49:41;;;;;;;;;;;;;;;;;;1031616;28;796;-35
2022/01/11 00:50:11;;;;;;;;;;;;;;;;;;1031436;28;772;-35
2022/01/11 00:50:41;;;;;;;;;;;;;;;;;;1031452;28;934;-34
2022/01/11 00:51:12;;;;;;;;;;;;;;;;;;1031358;28;1375;-37
2022/01/11 00:51:43;;;;;;;;;;;;;;;;;;1031559;28;975;-36
2022/01/11 00:52:14;;;;;;;;;;;;;;;;;;1031481;28;934;-34
2022/01/11 00:52:45;;;;;;;;;;;;;;;;;;1027483;28;859;-36
2022/01/11 00:53:15;;;;;;;;;;;;;;;;;;1027423;28;816;-37
2022/01/11 00:53:46;;;;;;;;;;;;;;;;;;1023607;29;1416;-37
2022/01/11 00:54:16;;;;;;;;;;;;;;;;;;1023436;28;994;-34
2022/01/11 00:54:46;;;;;;;;;;;;;;;;;;1023623;29;1437;-36
2022/01/11 00:55:17;;;;;;;;;;;;;;;;;;1023438;28;776;-37
2022/01/11 00:55:48;;;;;;;;;;;;;;;;;;1027533;28;820;-37
2022/01/11 00:56:18;;;;;;;;;;;;;;;;;;1027550;28;672;-37
2022/01/11 00:56:50;;;;;;;;;;;;;;;;;;1031507;28;827;-36
2022/01/11 00:57:21;;;;;;;;;;;;;;;;;;1031379;28;949;-36
2022/01/11 00:57:51;;;;;;;;;;;;;;;;;;1031662;28;974;-37
2022/01/11 00:58:22;;;;;;;;;;;;;;;;;;1031366;28;645;-37
2022/01/11 00:58:52;;;;;;;;;;;;;;;;;;1031647;28;962;-37
2022/01/11 00:59:23;;;;;;;;;;;;;;;;;;1031428;28;835;-34
2022/01/11 00:59:53;;;;;;;;;;;;;;;;;;1031533;28;933;-36
2022/01/11 01:00:24;;;;;;;;;;;;;;;;;;1031622;28;842;-37
2022/01/11 01:00:55;;;;;;;;;;;;;;;;;;1031134;28;787;-37
2022/01/11 01:01:27;;;;;;;;;;;;;;;;;;1031567;28;973;-35
2022/01/11 01:01:58;;;;;;;;;;;;;;;;;;1031831;28;926;-32
2022/01/11 01:02:28;;;;;;;;;;;;;;;;;;1031856;28;835;-38
2022/01/11 01:02:58;;;;;;;;;;;;;;;;;;1031850;28;787;-37
2022/01/11 01:03:29;;;;;;;;;;;;;;;;;;1031736;28;921;-35
2022/01/11 01:04:01;;;;;;;;;;;;;;;;;;1031846;28;824;-38
2022/01/11 01:04:31;;;;;;;;;;;;;;;;;;1031820;28;854;-32
2022/01/11 01:05:02;;;;;;;;;;;;;;;;;;1031979;28;846;-37
2022/01/11 01:05:33;;;;;;;;;;;;;;;;;;1031270;28;1632;-37
2022/01/11 01:06:04;;;;;;;;;;;;;;;;;;1027309;28;1173;-36
2022/01/11 01:06:37;;;;;;;;;;;;;;;;;;1027392;28;1537;-35
2022/01/11 01:07:08;;;;;;;;;;;;;;;;;;1023458;29;957;-35
2022/01/11 01:07:39;;;;;;;;;;;;;;;;;;1023850;28;989;-36
2022/01/11 01:08:09;;;;;;;;;;;;;;;;;;1023530;29;1305;-34
2022/01/11 01:08:42;;;;;;;;;;;;;;;;;;1023777;28;1915;-37
2022/01/11 01:09:14;;;;;;;;;;;;;;;;;;1027322;28;1295;-36
2022/01/11 01:10:00;;;;;;;;;;;;;;;;;;1024672;28;827;-34
2022/01/11 01:10:38;;;;;;;;;;;;;;;;;;1023330;29;1409;-33
2022/01/11 01:11:10;;;;;;;;;;;;;;;;;;1023468;29;1402;-37
2022/01/11 01:11:47;;;;;;;;;;;;;;;;;;1026961;28;874;-37
2022/01/11 01:12:17;;;;;;;;;;;;;;;;;;1025328;28;1520;-37
2022/01/11 01:12:48;;;;;;;;;;;;;;;;;;1023487;29;1452;-38
2022/01/11 01:13:20;;;;;;;;;;;;;;;;;;1023351;29;1338;-37
2022/01/11 01:13:54;;;;;;;;;;;;;;;;;;1023295;29;1210;-36
2022/01/11 01:14:25;;;;;;;;;;;;;;;;;;1023367;29;986;-35
2022/01/11 01:14:56;;;;;;;;;;;;;;;;;;1019531;29;1680;-37
2022/01/11 01:15:27;;;;;;;;;;;;;;;;;;1023481;28;1336;-36
2022/01/11 01:16:00;;;;;;;;;;;;;;;;;;1027361;28;1389;-36
2022/01/11 01:16:42;;;;;;;;;;;;;;;;;;1027428;28;1600;-35
2022/01/11 01:17:19;;;;;;;;;;;;;;;;;;1026339;28;1272;-36
2022/01/11 01:17:50;;;;;;;;;;;;;;;;;;1023601;29;1183;-37
2022/01/11 01:18:23;;;;;;;;;;;;;;;;;;1022976;29;1146;-37
2022/01/11 01:18:53;;;;;;;;;;;;;;;;;;1023993;28;969;-32
2022/01/11 01:19:27;;;;;;;;;;;;;;;;;;1027699;28;1158;-35
2022/01/11 01:19:59;;;;;;;;;;;;;;;;;;1031365;28;1311;-37
2022/01/11 01:20:29;;;;;;;;;;;;;;;;;;1027325;28;1695;-35
2022/01/11 01:21:00;;;;;;;;;;;;;;;;;;1027377;28;799;-36
2022/01/11 01:21:36;;;;;;;;;;;;;;;;;;1027411;28;780;-36
2022/01/11 01:22:07;;;;;;;;;;;;;;;;;;1028280;28;843;-35
2022/01/11 01:22:37;;;;;;;;;;;;;;;;;;1031284;28;1122;-36
2022/01/11 01:23:08;;;;;;;;;;;;;;;;;;1027424;28;1233;-36
2022/01/11 01:23:39;;;;;;;;;;;;;;;;;;1027275;28;866;-37
2022/01/11 01:24:10;;;;;;;;;;;;;;;;;;1027604;28;772;-32
2022/01/11 01:24:41;;;;;;;;;;;;;;;;;;1027527;28;814;-36
2022/01/11 01:25:12;;;;;;;;;;;;;;;;;;1031614;28;1098;-36
2022/01/11 01:25:44;;;;;;;;;;;;;;;;;;1027318;28;1257;-37
2022/01/11 01:26:17;;;;;;;;;;;;;;;;;;1027267;28;811;-35
2022/01/11 01:26:47;;;;;;;;;;;;;;;;;;1027462;28;883;-34
2022/01/11 01:27:18;;;;;;;;;;;;;;;;;;1027849;28;1435;-35
2022/01/11 01:27:48;;;;;;;;;;;;;;;;;;1031488;28;994;-35
2022/01/11 01:28:19;;;;;;;;;;;;;;;;;;1031250;28;1301;-37
2022/01/11 01:28:49;;;;;;;;;;;;;;;;;;1031269;28;1906;-36
2022/01/11 01:29:19;;;;;;;;;;;;;;;;;;1027340;28;1205;-33
2022/01/11 01:29:50;;;;;;;;;;;;;;;;;;1027401;28;741;-37
2022/01/11 01:30:21;;;;;;;;;;;;;;;;;;1023198;29;875;-34
2022/01/11 01:30:52;;;;;;;;;;;;;;;;;;1023416;28;1237;-38
2022/01/11 01:31:22;;;;;;;;;;;;;;;;;;1023423;28;1278;-37
2022/01/11 01:31:58;;;;;;;;;;;;;;;;;;1027407;28;831;-35
2022/01/11 01:32:29;;;;;;;;;;;;;;;;;;1027428;28;914;-37
2022/01/11 01:32:59;;;;;;;;;;;;;;;;;;1028033;28;989;-33
2022/01/11 01:33:31;;;;;;;;;;;;;;;;;;1031772;28;1015;-38
2022/01/11 01:34:01;;;;;;;;;;;;;;;;;;1031696;28;958;-35
2022/01/11 01:34:32;;;;;;;;;;;;;;;;;;1031686;28;835;-38
2022/01/11 01:35:05;;;;;;;;;;;;;;;;;;1031798;28;958;-37
2022/01/11 01:35:39;;;;;;;;;;;;;;;;;;1031636;28;958;-36
2022/01/11 01:36:11;;;;;;;;;;;;;;;;;;1031429;28;1373;-36
2022/01/11 01:36:42;;;;;;;;;;;;;;;;;;1027240;28;938;-35
2022/01/11 01:37:12;;;;;;;;;;;;;;;;;;1027379;28;973;-37
2022/01/11 01:37:42;;;;;;;;;;;;;;;;;;1027376;28;1013;-38
2022/01/11 01:38:13;;;;;;;;;;;;;;;;;;1027399;28;855;-36
2022/01/11 01:38:43;;;;;;;;;;;;;;;;;;1031732;28;1113;-36
2022/01/11 01:39:13;;;;;;;;;;;;;;;;;;1027264;28;1348;-35
2022/01/11 01:39:44;;;;;;;;;;;;;;;;;;1027314;28;879;-36
2022/01/11 01:40:17;;;;;;;;;;;;;;;;;;1027283;28;1319;-37
2022/01/11 01:40:47;;;;;;;;;;;;;;;;;;1027631;28;993;-35
2022/01/11 01:41:20;;;;;;;;;;;;;;;;;;1027277;28;938;-37
2022/01/11 01:41:50;;;;;;;;;;;;;;;;;;1027375;28;867;-35
2022/01/11 01:42:22;;;;;;;;;;;;;;;;;;1027249;28;808;-37
2022/01/11 01:42:52;;;;;;;;;;;;;;;;;;1027869;28;875;-37
2022/01/11 01:43:24;;;;;;;;;;;;;;;;;;1031437;28;1154;-36
2022/01/11 01:43:56;;;;;;;;;;;;;;;;;;1031263;28;1577;-38
2022/01/11 01:44:26;;;;;;;;;;;;;;;;;;1031353;28;926;-37
2022/01/11 01:44:59;;;;;;;;;;;;;;;;;;1027234;28;1267;-38
2022/01/11 01:45:30;;;;;;;;;;;;;;;;;;1027268;28;942;-38
2022/01/11 01:46:01;;;;;;;;;;;;;;;;;;1027209;28;986;-38
2022/01/11 01:46:32;;;;;;;;;;;;;;;;;;1027848;28;799;-36
2022/01/11 01:47:03;;;;;;;;;;;;;;;;;;1031730;28;1162;-38
2022/01/11 01:47:33;;;;;;;;;;;;;;;;;;1031527;28;958;-36
2022/01/11 01:48:04;;;;;;;;;;;;;;;;;;1031809;28;965;-36
2022/01/11 01:48:35;;;;;;;;;;;;;;;;;;1031411;28;1910;-38
2022/01/11 01:49:07;;;;;;;;;;;;;;;;;;1027764;28;933;-35
2022/01/11 01:49:39;;;;;;;;;;;;;;;;;;1027430;28;903;-36
2022/01/11 01:50:10;;;;;;;;;;;;;;;;;;1027437;28;977;-37
2022/01/11 01:50:42;;;;;;;;;;;;;;;;;;1027190;28;732;-37
2022/01/11 01:51:12;;;;;;;;;;;;;;;;;;1027273;28;894;-35
2022/01/11 01:51:44;;;;;;;;;;;;;;;;;;1027200;28;965;-36
2022/01/11 01:52:15;;;;;;;;;;;;;;;;;;1027353;28;820;-35
2022/01/11 01:52:45;;;;;;;;;;;;;;;;;;1027147;28;1420;-36
2022/01/11 01:53:16;;;;;;;;;;;;;;;;;;1027300;28;922;-33
2022/01/11 01:53:48;;;;;;;;;;;;;;;;;;1027133;28;796;-37
2022/01/11 01:54:19;;;;;;;;;;;;;;;;;;1023291;29;1640;-33
2022/01/11 01:54:50;;;;;;;;;;;;;;;;;;1023332;29;818;-38
2022/01/11 01:55:21;;;;;;;;;;;;;;;;;;1023191;29;966;-37
2022/01/11 01:55:51;;;;;;;;;;;;;;;;;;1023341;28;1290;-35
2022/01/11 01:56:22;;;;;;;;;;;;;;;;;;1027286;28;1456;-35
2022/01/11 01:56:53;;;;;;;;;;;;;;;;;;1023128;29;1409;-38
2022/01/11 01:57:23;;;;;;;;;;;;;;;;;;1023438;29;811;-37
2022/01/11 01:57:54;;;;;;;;;;;;;;;;;;1027008;28;1517;-32
2022/01/11 01:58:25;;;;;;;;;;;;;;;;;;1027142;28;1309;-36
2022/01/11 01:58:56;;;;;;;;;;;;;;;;;;1023155;29;1291;-37
2022/01/11 01:59:27;;;;;;;;;;;;;;;;;;1023134;29;1149;-37
2022/01/11 01:59:57;;;;;;;;;;;;;;;;;;1019208;29;1237;-37
2022/01/11 02:00:29;;;;;;;;;;;;;;;;;;1015106;29;1247;-38
2022/01/11 02:01:04;;;;;;;;;;;;;;;;;;1015873;29;571;-36
2022/01/11 02:01:41;;;;;;;;;;;;;;;;;;1019985;29;784;-34
2022/01/11 02:02:13;;;;;;;;;;;;;;;;;;1025103;28;872;-33
2022/01/11 02:02:44;;;;;;;;;;;;;;;;;;1027340;28;1197;-35
2022/01/11 02:03:15;;;;;;;;;;;;;;;;;;1027127;28;941;-34
2022/01/11 02:03:45;;;;;;;;;;;;;;;;;;1027369;28;791;-38
2022/01/11 02:04:17;;;;;;;;;;;;;;;;;;1027151;28;914;-35
2022/01/11 02:04:49;;;;;;;;;;;;;;;;;;1027136;28;1613;-38
2022/01/11 02:05:20;;;;;;;;;;;;;;;;;;1027267;28;863;-38
2022/01/11 02:05:50;;;;;;;;;;;;;;;;;;1023194;29;1126;-35
2022/01/11 02:06:21;;;;;;;;;;;;;;;;;;1023133;29;946;-37
2022/01/11 02:06:51;;;;;;;;;;;;;;;;;;1023233;29;978;-37
2022/01/11 02:07:22;;;;;;;;;;;;;;;;;;1023276;28;839;-35
2022/01/11 02:07:52;;;;;;;;;;;;;;;;;;1027444;28;958;-36
2022/01/11 02:08:23;;;;;;;;;;;;;;;;;;1027588;28;954;-35
2022/01/11 02:08:54;;;;;;;;;;;;;;;;;;1027018;28;1265;-35
2022/01/11 02:09:24;;;;;;;;;;;;;;;;;;1027310;28;989;-36
2022/01/11 02:09:55;;;;;;;;;;;;;;;;;;1027086;28;870;-37
2022/01/11 02:10:25;;;;;;;;;;;;;;;;;;1027183;28;811;-37
2022/01/11 02:10:56;;;;;;;;;;;;;;;;;;1027394;28;859;-36
2022/01/11 02:11:26;;;;;;;;;;;;;;;;;;1027593;28;832;-37
2022/01/11 02:11:57;;;;;;;;;;;;;;;;;;1027308;28;1679;-37
2022/01/11 02:12:28;;;;;;;;;;;;;;;;;;1022972;29;1297;-37
2022/01/11 02:13:00;;;;;;;;;;;;;;;;;;1023029;29;894;-36
2022/01/11 02:13:30;;;;;;;;;;;;;;;;;;1023171;29;618;-33
2022/01/11 02:14:01;;;;;;;;;;;;;;;;;;1023091;28;1151;-35
2022/01/11 02:14:32;;;;;;;;;;;;;;;;;;1019565;29;985;-36
2022/01/11 02:15:04;;;;;;;;;;;;;;;;;;1023049;29;1374;-37
2022/01/11 02:15:34;;;;;;;;;;;;;;;;;;1023119;29;958;-37
2022/01/11 02:16:05;;;;;;;;;;;;;;;;;;1023496;28;1344;-38
2022/01/11 02:16:36;;;;;;;;;;;;;;;;;;1022747;29;1273;-36
2022/01/11 02:17:07;;;;;;;;;;;;;;;;;;1019204;29;1386;-37
2022/01/11 02:17:38;;;;;;;;;;;;;;;;;;1019395;29;939;-35
2022/01/11 02:18:10;;;;;;;;;;;;;;;;;;1019524;29;1184;-36
2022/01/11 02:18:42;;;;;;;;;;;;;;;;;;1023091;29;1194;-36
2022/01/11 02:19:18;;;;;;;;;;;;;;;;;;1026986;28;1332;-36
2022/01/11 02:19:48;;;;;;;;;;;;;;;;;;1026033;28;1150;-35
2022/01/11 02:20:19;;;;;;;;;;;;;;;;;;1022989;29;1173;-34
2022/01/11 02:20:50;;;;;;;;;;;;;;;;;;1019068;29;1174;-38
2022/01/11 02:21:28;;;;;;;;;;;;;;;;;;1020261;29;1197;-35
2022/01/11 02:22:00;;;;;;;;;;;;;;;;;;1019073;29;2110;-36
2022/01/11 02:22:30;;;;;;;;;;;;;;;;;;1020480;29;2363;-36
2022/01/11 02:23:01;;;;;;;;;;;;;;;;;;1019211;29;1299;-37
2022/01/11 02:23:31;;;;;;;;;;;;;;;;;;1019014;29;1365;-36
2022/01/11 02:24:02;;;;;;;;;;;;;;;;;;1019267;29;1185;-35
2022/01/11 02:24:36;;;;;;;;;;;;;;;;;;1019698;29;1334;-36
2022/01/11 02:25:09;;;;;;;;;;;;;;;;;;1022025;29;1321;-36
2022/01/11 02:25:40;;;;;;;;;;;;;;;;;;1022920;29;1536;-37
2022/01/11 02:26:12;;;;;;;;;;;;;;;;;;1023628;28;1116;-37
2022/01/11 02:26:45;;;;;;;;;;;;;;;;;;1027218;28;1385;-35
2022/01/11 02:27:16;;;;;;;;;;;;;;;;;;1023692;28;914;-38
2022/01/11 02:27:47;;;;;;;;;;;;;;;;;;1023172;29;1159;-36
2022/01/11 02:28:19;;;;;;;;;;;;;;;;;;1023910;28;1108;-36
2022/01/11 02:28:51;;;;;;;;;;;;;;;;;;1031480;28;1910;-37
2022/01/11 02:29:21;;;;;;;;;;;;;;;;;;1035218;28;1523;-38
2022/01/11 02:29:53;;;;;;;;;;;;;;;;;;1034888;28;1319;-38
2022/01/11 02:30:23;;;;;;;;;;;;;;;;;;1035284;28;831;-37
2022/01/11 02:30:55;;;;;;;;;;;;;;;;;;1031041;28;1188;-37
2022/01/11 02:31:25;;;;;;;;;;;;;;;;;;1031115;28;2098;-37
2022/01/11 02:31:59;;;;;;;;;;;;;;;;;;1026963;28;1130;-33
2022/01/11 02:32:29;;;;;;;;;;;;;;;;;;1023689;28;1255;-38
2022/01/11 02:33:00;;;;;;;;;;;;;;;;;;1027101;28;1605;-34
2022/01/11 02:33:33;;;;;;;;;;;;;;;;;;1023321;28;1627;-37
2022/01/11 02:34:30;;;;;;;;;;;;;;;;;;1018914;29;1138;-36
2022/01/11 02:35:09;;;;;;;;;;;;;;;;;;1021421;28;1178;-35
2022/01/11 02:35:40;;;;;;;;;;;;;;;;;;1031066;28;1323;-37
2022/01/11 02:36:12;;;;;;;;;;;;;;;;;;1031189;28;966;-35
2022/01/11 02:36:43;;;;;;;;;;;;;;;;;;1027299;28;1127;-35
2022/01/11 02:37:23;;;;;;;;;;;;;;;;;;1031198;28;1302;-36
2022/01/11 02:38:03;;;;;;;;;;;;;;;;;;1031022;28;1310;-35
2022/01/11 02:38:34;;;;;;;;;;;;;;;;;;1033681;28;906;-35
2022/01/11 02:39:04;;;;;;;;;;;;;;;;;;1029821;28;1141;-37
2022/01/11 02:39:35;;;;;;;;;;;;;;;;;;1023081;28;1323;-37
2022/01/11 02:40:19;;;;;;;;;;;;;;;;;;1022970;29;1128;-35
2022/01/11 02:40:49;;;;;;;;;;;;;;;;;;1020815;29;1202;-34
2022/01/11 02:41:20;;;;;;;;;;;;;;;;;;1024911;28;874;-37
2022/01/11 02:41:52;;;;;;;;;;;;;;;;;;1023070;28;1169;-37
2022/01/11 02:42:27;;;;;;;;;;;;;;;;;;1023908;28;1467;-37
2022/01/11 02:42:57;;;;;;;;;;;;;;;;;;1027067;28;1122;-37
2022/01/11 02:43:27;;;;;;;;;;;;;;;;;;1031951;28;1311;-34
2022/01/11 02:43:58;;;;;;;;;;;;;;;;;;1035003;28;1253;-36
2022/01/11 02:44:30;;;;;;;;;;;;;;;;;;1027140;28;1265;-36
2022/01/11 02:45:02;;;;;;;;;;;;;;;;;;1030463;28;1095;-37
2022/01/11 02:45:37;;;;;;;;;;;;;;;;;;1031093;28;1295;-37
2022/01/11 02:46:09;;;;;;;;;;;;;;;;;;1032151;28;835;-37
2022/01/11 02:46:41;;;;;;;;;;;;;;;;;;1031158;28;1272;-37
2022/01/11 02:47:11;;;;;;;;;;;;;;;;;;1030634;28;1161;-38
2022/01/11 02:47:46;;;;;;;;;;;;;;;;;;1031063;28;1315;-38
2022/01/11 02:48:16;;;;;;;;;;;;;;;;;;1031726;28;2004;-37
2022/01/11 02:48:47;;;;;;;;;;;;;;;;;;1034123;28;1967;-38
2022/01/11 02:49:18;;;;;;;;;;;;;;;;;;1027047;28;1545;-37
2022/01/11 02:49:53;;;;;;;;;;;;;;;;;;1022935;29;1293;-34
2022/01/11 02:50:27;;;;;;;;;;;;;;;;;;1023998;28;1161;-35
2022/01/11 02:50:57;;;;;;;;;;;;;;;;;;1024059;28;906;-33
2022/01/11 02:51:28;;;;;;;;;;;;;;;;;;1027070;28;1527;-36
2022/01/11 02:52:01;;;;;;;;;;;;;;;;;;1027506;28;1407;-37
2022/01/11 02:52:32;;;;;;;;;;;;;;;;;;1026999;28;1482;-35
2022/01/11 02:53:07;;;;;;;;;;;;;;;;;;1027820;28;1449;-35
2022/01/11 02:53:39;;;;;;;;;;;;;;;;;;1027109;28;1291;-33
2022/01/11 02:54:09;;;;;;;;;;;;;;;;;;1031761;28;1105;-37
2022/01/11 02:54:39;;;;;;;;;;;;;;;;;;1030575;28;2637;-36
2022/01/11 02:55:16;;;;;;;;;;;;;;;;;;1026968;28;1341;-37
2022/01/11 02:55:48;;;;;;;;;;;;;;;;;;1031029;28;1402;-36
2022/01/11 02:56:19;;;;;;;;;;;;;;;;;;1028056;28;1462;-38
2022/01/11 02:56:49;;;;;;;;;;;;;;;;;;1026969;28;1560;-38
2022/01/11 02:57:20;;;;;;;;;;;;;;;;;;1027048;28;1279;-38
2022/01/11 02:57:53;;;;;;;;;;;;;;;;;;1027397;28;1108;-33
2022/01/11 02:58:28;;;;;;;;;;;;;;;;;;1032028;28;1466;-36
2022/01/11 02:58:59;;;;;;;;;;;;;;;;;;1035079;28;949;-38
2022/01/11 02:59:29;;;;;;;;;;;;;;;;;;1034427;28;881;-37
2022/01/11 02:59:59;;;;;;;;;;;;;;;;;;1031127;28;771;-35
2022/01/11 03:00:30;;;;;;;;;;;;;;;;;;1035093;28;1350;-35
2022/01/11 03:01:01;;;;;;;;;;;;;;;;;;1034954;28;1346;-35
2022/01/11 03:01:31;;;;;;;;;;;;;;;;;;1031027;28;1691;-36
2022/01/11 03:02:02;;;;;;;;;;;;;;;;;;1027093;28;1289;-38
2022/01/11 03:02:33;;;;;;;;;;;;;;;;;;1027015;28;1432;-36
2022/01/11 03:03:14;;;;;;;;;;;;;;;;;;1023198;28;1249;-33
2022/01/11 03:03:45;;;;;;;;;;;;;;;;;;1027084;28;1566;-38
2022/01/11 03:04:15;;;;;;;;;;;;;;;;;;1024455;28;1162;-36
2022/01/11 03:04:46;;;;;;;;;;;;;;;;;;1024570;28;1248;-38
2022/01/11 03:05:17;;;;;;;;;;;;;;;;;;1022919;29;1662;-34
2022/01/11 03:05:49;;;;;;;;;;;;;;;;;;1023312;28;985;-34
2022/01/11 03:06:21;;;;;;;;;;;;;;;;;;1023527;28;1186;-37
2022/01/11 03:06:53;;;;;;;;;;;;;;;;;;1023458;28;1241;-35
2022/01/11 03:07:24;;;;;;;;;;;;;;;;;;1027083;28;776;-33
2022/01/11 03:07:54;;;;;;;;;;;;;;;;;;1027057;28;1453;-34
2022/01/11 03:08:27;;;;;;;;;;;;;;;;;;1031534;28;1910;-35
2022/01/11 03:08:58;;;;;;;;;;;;;;;;;;1034960;28;949;-37
2022/01/11 03:09:34;;;;;;;;;;;;;;;;;;1035068;28;926;-37
2022/01/11 03:10:14;;;;;;;;;;;;;;;;;;1031038;28;1302;-34
2022/01/11 03:10:51;;;;;;;;;;;;;;;;;;1026944;28;1181;-37
2022/01/11 03:11:24;;;;;;;;;;;;;;;;;;1030998;28;1153;-37
2022/01/11 03:11:56;;;;;;;;;;;;;;;;;;1033497;28;969;-35
2022/01/11 03:12:27;;;;;;;;;;;;;;;;;;1035166;28;1383;-37
2022/01/11 03:13:02;;;;;;;;;;;;;;;;;;1034330;28;1177;-36
2022/01/11 03:13:35;;;;;;;;;;;;;;;;;;1030897;28;1456;-37
2022/01/11 03:14:05;;;;;;;;;;;;;;;;;;1027015;28;1304;-33
2022/01/11 03:14:36;;;;;;;;;;;;;;;;;;1026986;28;1138;-37
2022/01/11 03:15:06;;;;;;;;;;;;;;;;;;1027526;28;760;-37
2022/01/11 03:15:38;;;;;;;;;;;;;;;;;;1027022;28;1386;-36
2022/01/11 03:16:13;;;;;;;;;;;;;;;;;;1026903;28;1220;-37
2022/01/11 03:16:43;;;;;;;;;;;;;;;;;;1027141;28;838;-33
2022/01/11 03:17:14;;;;;;;;;;;;;;;;;;1026963;28;1275;-34
2022/01/11 03:17:45;;;;;;;;;;;;;;;;;;1027176;28;780;-35
2022/01/11 03:18:16;;;;;;;;;;;;;;;;;;1026986;28;1209;-36
2022/01/11 03:18:50;;;;;;;;;;;;;;;;;;1027688;28;1327;-35
2022/01/11 03:19:21;;;;;;;;;;;;;;;;;;1031098;28;827;-37
2022/01/11 03:19:52;;;;;;;;;;;;;;;;;;1030874;28;816;-36
2022/01/11 03:20:22;;;;;;;;;;;;;;;;;;1026784;28;1119;-36
2022/01/11 03:20:53;;;;;;;;;;;;;;;;;;1023132;29;1189;-37
2022/01/11 03:21:26;;;;;;;;;;;;;;;;;;1023111;28;1541;-37
2022/01/11 03:21:57;;;;;;;;;;;;;;;;;;1026931;28;1297;-37
2022/01/11 03:22:27;;;;;;;;;;;;;;;;;;1027372;28;871;-34
2022/01/11 03:22:58;;;;;;;;;;;;;;;;;;1031039;28;958;-35
2022/01/11 03:23:28;;;;;;;;;;;;;;;;;;1026968;28;1602;-31
2022/01/11 03:23:58;;;;;;;;;;;;;;;;;;1031069;28;870;-37
2022/01/11 03:24:30;;;;;;;;;;;;;;;;;;1031532;28;1564;-37
2022/01/11 03:25:01;;;;;;;;;;;;;;;;;;1030225;28;1184;-37
2022/01/11 03:25:34;;;;;;;;;;;;;;;;;;1027563;28;1457;-37
2022/01/11 03:26:05;;;;;;;;;;;;;;;;;;1023885;29;1263;-36
2022/01/11 03:26:38;;;;;;;;;;;;;;;;;;1023751;29;1302;-34
2022/01/11 03:27:08;;;;;;;;;;;;;;;;;;1023806;29;1411;-33
2022/01/11 03:27:42;;;;;;;;;;;;;;;;;;1020337;29;1173;-36
2022/01/11 03:28:15;;;;;;;;;;;;;;;;;;1028424;28;1408;-34
2022/01/11 03:28:46;;;;;;;;;;;;;;;;;;1031897;28;1922;-35
2022/01/11 03:29:17;;;;;;;;;;;;;;;;;;1026797;28;1600;-34
2022/01/11 03:29:48;;;;;;;;;;;;;;;;;;1023759;29;1176;-36
2022/01/11 03:30:18;;;;;;;;;;;;;;;;;;1019693;29;1814;-36
2022/01/11 03:30:52;;;;;;;;;;;;;;;;;;1020251;29;1321;-35
2022/01/11 03:31:23;;;;;;;;;;;;;;;;;;1019940;29;1189;-37
2022/01/11 03:31:55;;;;;;;;;;;;;;;;;;1020501;29;1541;-38
2022/01/11 03:32:25;;;;;;;;;;;;;;;;;;1023750;29;1166;-37
2022/01/11 03:32:55;;;;;;;;;;;;;;;;;;1024060;28;870;-37
2022/01/11 03:33:31;;;;;;;;;;;;;;;;;;1023611;29;1370;-37
2022/01/11 03:34:01;;;;;;;;;;;;;;;;;;1023987;29;863;-33
2022/01/11 03:34:32;;;;;;;;;;;;;;;;;;1023709;29;915;-35
2022/01/11 03:35:05;;;;;;;;;;;;;;;;;;1023799;29;1666;-34
2022/01/11 03:35:36;;;;;;;;;;;;;;;;;;1023860;29;797;-32
2022/01/11 03:36:07;;;;;;;;;;;;;;;;;;1023729;29;894;-36
2022/01/11 03:36:37;;;;;;;;;;;;;;;;;;1023745;29;1280;-34
2022/01/11 03:37:10;;;;;;;;;;;;;;;;;;1023766;29;1118;-36
2022/01/11 03:37:42;;;;;;;;;;;;;;;;;;1023816;29;1460;-35
2022/01/11 03:38:12;;;;;;;;;;;;;;;;;;1024324;28;986;-37
2022/01/11 03:38:45;;;;;;;;;;;;;;;;;;1023671;29;1481;-37
2022/01/11 03:39:17;;;;;;;;;;;;;;;;;;1019814;29;1593;-37
2022/01/11 03:39:48;;;;;;;;;;;;;;;;;;1019896;29;1769;-34
2022/01/11 03:40:21;;;;;;;;;;;;;;;;;;1019863;29;1859;-32
2022/01/11 03:40:52;;;;;;;;;;;;;;;;;;1024228;28;1204;-35
2022/01/11 03:41:23;;;;;;;;;;;;;;;;;;1023650;29;1192;-35
2022/01/11 03:41:54;;;;;;;;;;;;;;;;;;1019761;29;1288;-37
2022/01/11 03:42:24;;;;;;;;;;;;;;;;;;1019933;29;777;-36
2022/01/11 03:42:55;;;;;;;;;;;;;;;;;;1019830;29;1173;-39
2022/01/11 03:43:26;;;;;;;;;;;;;;;;;;1019959;29;1158;-37
2022/01/11 03:43:57;;;;;;;;;;;;;;;;;;1023783;29;1311;-34
2022/01/11 03:44:27;;;;;;;;;;;;;;;;;;1023728;29;1542;-34
2022/01/11 03:44:57;;;;;;;;;;;;;;;;;;1027800;28;1122;-37
2022/01/11 03:45:28;;;;;;;;;;;;;;;;;;1027733;28;934;-36